Kernville, CA (93238)

6:06 AM PST on February 13, 2016 (GMT -0800)
Bull Run Mouth | | Change Station
CLOSE
Current Station
Personal Weather Station
Location: Kernville, CA
Elevation: 2726 ft
Nearby Weather Stations

Elev 2726 ft 35.78 °N, 118.44 °W | Updated 30 seconds ago

Partly Cloudy
Partly Cloudy
33.0 °F
Feels Like 33 °F
N
0.0
Wind Variable Wind from SE

Today
High -- | Low -- °F
--% Chance of Precip.
Yesterday
High -- | Low -- °F
Precip. -- in
Pressure 30.18 in
Visibility 10.0 miles
Clouds Clear
Windchill 33 °F
Dew Point 29 °F
Humidity 86%
Rainfall 0.00 in
Snow Depth Not available.
6:43 AM 5:33 PM
Waxing Crescent, 31% visible
METAR KNID 131356Z AUTO 21004KT 10SM CLR 02/M03 A3017 RMK AO2 SLP218 T00221033 $
Pressure 30.18 in
Visibility 10.0 miles
Clouds Clear
Windchill 33 °F
Dew Point 29 °F
Humidity 86%
Rainfall 0.00 in
Snow Depth Not available.
6:43 AM 5:33 PM
Waxing Crescent, 31% visible
METAR KNID 131356Z AUTO 21004KT 10SM CLR 02/M03 A3017 RMK AO2 SLP218 T00221033 $

10-Day Weather Forecast

Almanac

Astronomy

Feb. 13, 2016 Rise Set
Actual Time
Civil Twilight
Nautical Twilight
Astronomical Twilight
Moon
Length of Visible Light
Length of Day
Tomorrow will be .
, % of the Moon is Illuminated

Today's Extremes

State Highs State Lows

Community

WunderPhotos

Upload Photos

1,892,556 photos uploaded!

WunderBlog® & News

Nearby

Air Quality

  Air Quality AQ Index Pollutant
Not available.

Snow Depth

Station Depth Elevation

Earthquake Activity

City Distance Mag. Time & Date
Minimum magnitude displayed is 2.5.

Coastal Water Temperatures

Place Temperature

Stations

Nearby Weather Stations

Station Location Temp. Windchill Dew Point Humidity Wind Precip. Elev Updated Type
                   

Watches & Warnings

There are currently no watches in effect.